sensor_id;sensor_type;location;lat;lon;timestamp;P1;durP1;ratioP1;P2;durP2;ratioP2
40367;SDS011;26075;43.320;21.920;2022-08-19T00:03:04;7.57;;;5.30;;
40367;SDS011;26075;43.320;21.920;2022-08-19T00:08:06;6.47;;;5.05;;
40367;SDS011;26075;43.320;21.920;2022-08-19T00:13:07;8.10;;;5.35;;
40367;SDS011;26075;43.320;21.920;2022-08-19T00:18:09;6.53;;;4.88;;
40367;SDS011;26075;43.320;21.920;2022-08-19T00:23:10;9.35;;;5.05;;
40367;SDS011;26075;43.320;21.920;2022-08-19T00:28:11;6.55;;;4.80;;
40367;SDS011;26075;43.320;21.920;2022-08-19T00:33:12;6.78;;;5.53;;
40367;SDS011;26075;43.320;21.920;2022-08-19T00:38:13;9.90;;;5.35;;
40367;SDS011;26075;43.320;21.920;2022-08-19T00:43:17;7.80;;;5.15;;
40367;SDS011;26075;43.320;21.920;2022-08-19T00:48:19;8.50;;;5.93;;
40367;SDS011;26075;43.320;21.920;2022-08-19T00:53:22;7.28;;;5.00;;
40367;SDS011;26075;43.320;21.920;2022-08-19T00:58:24;7.88;;;4.85;;
40367;SDS011;26075;43.320;21.920;2022-08-19T01:03:27;8.43;;;5.03;;
40367;SDS011;26075;43.320;21.920;2022-08-19T01:08:29;8.00;;;4.93;;
40367;SDS011;26075;43.320;21.920;2022-08-19T01:13:30;6.47;;;5.60;;
40367;SDS011;26075;43.320;21.920;2022-08-19T01:18:32;6.43;;;5.03;;
40367;SDS011;26075;43.320;21.920;2022-08-19T01:23:36;5.97;;;4.43;;
40367;SDS011;26075;43.320;21.920;2022-08-19T01:28:44;6.55;;;4.63;;
40367;SDS011;26075;43.320;21.920;2022-08-19T01:33:45;8.27;;;4.72;;
40367;SDS011;26075;43.320;21.920;2022-08-19T01:38:46;6.50;;;4.65;;
40367;SDS011;26075;43.320;21.920;2022-08-19T01:43:48;7.85;;;4.90;;
40367;SDS011;26075;43.320;21.920;2022-08-19T01:48:50;9.15;;;5.82;;
40367;SDS011;26075;43.320;21.920;2022-08-19T01:53:51;8.05;;;4.50;;
40367;SDS011;26075;43.320;21.920;2022-08-19T01:58:56;8.27;;;4.72;;
40367;SDS011;26075;43.320;21.920;2022-08-19T02:03:58;8.60;;;4.70;;
40367;SDS011;26075;43.320;21.920;2022-08-19T02:09:00;6.22;;;4.60;;
40367;SDS011;26075;43.320;21.920;2022-08-19T02:14:03;8.25;;;5.00;;
40367;SDS011;26075;43.320;21.920;2022-08-19T02:19:05;7.90;;;4.45;;
40367;SDS011;26075;43.320;21.920;2022-08-19T02:24:07;11.15;;;4.68;;
40367;SDS011;26075;43.320;21.920;2022-08-19T02:29:08;7.28;;;4.80;;
40367;SDS011;26075;43.320;21.920;2022-08-19T02:34:09;5.70;;;4.50;;
40367;SDS011;26075;43.320;21.920;2022-08-19T02:39:10;7.20;;;5.00;;
40367;SDS011;26075;43.320;21.920;2022-08-19T02:44:11;6.63;;;4.75;;
40367;SDS011;26075;43.320;21.920;2022-08-19T02:49:12;6.15;;;4.50;;
40367;SDS011;26075;43.320;21.920;2022-08-19T02:54:16;6.72;;;4.90;;
40367;SDS011;26075;43.320;21.920;2022-08-19T02:59:17;7.03;;;4.82;;
40367;SDS011;26075;43.320;21.920;2022-08-19T03:04:18;6.28;;;4.40;;
40367;SDS011;26075;43.320;21.920;2022-08-19T03:09:19;5.50;;;4.53;;
40367;SDS011;26075;43.320;21.920;2022-08-19T03:14:20;6.35;;;4.50;;
40367;SDS011;26075;43.320;21.920;2022-08-19T03:19:23;8.00;;;4.95;;
40367;SDS011;26075;43.320;21.920;2022-08-19T03:24:24;6.03;;;4.70;;
40367;SDS011;26075;43.320;21.920;2022-08-19T03:29:26;7.22;;;4.90;;
40367;SDS011;26075;43.320;21.920;2022-08-19T03:34:29;8.73;;;4.60;;
40367;SDS011;26075;43.320;21.920;2022-08-19T03:39:30;9.43;;;5.32;;
40367;SDS011;26075;43.320;21.920;2022-08-19T03:44:31;6.55;;;4.93;;
40367;SDS011;26075;43.320;21.920;2022-08-19T03:49:33;6.47;;;4.80;;
40367;SDS011;26075;43.320;21.920;2022-08-19T03:54:35;7.70;;;4.50;;
40367;SDS011;26075;43.320;21.920;2022-08-19T03:59:38;9.60;;;5.60;;
40367;SDS011;26075;43.320;21.920;2022-08-19T04:04:40;6.82;;;4.50;;
40367;SDS011;26075;43.320;21.920;2022-08-19T04:09:43;9.45;;;6.00;;
40367;SDS011;26075;43.320;21.920;2022-08-19T04:14:44;9.95;;;5.97;;
40367;SDS011;26075;43.320;21.920;2022-08-19T04:19:45;13.93;;;6.10;;
40367;SDS011;26075;43.320;21.920;2022-08-19T04:24:46;12.30;;;7.60;;
40367;SDS011;26075;43.320;21.920;2022-08-19T04:29:47;10.60;;;5.50;;
40367;SDS011;26075;43.320;21.920;2022-08-19T04:34:48;10.57;;;6.70;;
40367;SDS011;26075;43.320;21.920;2022-08-19T04:39:49;11.93;;;6.95;;
40367;SDS011;26075;43.320;21.920;2022-08-19T04:45:10;10.50;;;6.18;;
40367;SDS011;26075;43.320;21.920;2022-08-19T04:50:14;10.25;;;6.13;;
40367;SDS011;26075;43.320;21.920;2022-08-19T04:55:15;10.98;;;6.53;;
40367;SDS011;26075;43.320;21.920;2022-08-19T05:00:16;14.05;;;8.02;;
40367;SDS011;26075;43.320;21.920;2022-08-19T05:05:17;10.57;;;6.28;;
40367;SDS011;26075;43.320;21.920;2022-08-19T05:10:19;9.70;;;6.70;;
40367;SDS011;26075;43.320;21.920;2022-08-19T05:15:20;14.40;;;6.80;;
40367;SDS011;26075;43.320;21.920;2022-08-19T05:20:22;10.48;;;6.82;;
40367;SDS011;26075;43.320;21.920;2022-08-19T05:25:42;10.13;;;6.10;;
40367;SDS011;26075;43.320;21.920;2022-08-19T05:30:44;9.30;;;5.93;;
40367;SDS011;26075;43.320;21.920;2022-08-19T05:35:45;9.52;;;6.47;;
40367;SDS011;26075;43.320;21.920;2022-08-19T05:40:48;13.65;;;6.32;;
40367;SDS011;26075;43.320;21.920;2022-08-19T05:45:49;12.07;;;6.22;;
40367;SDS011;26075;43.320;21.920;2022-08-19T05:50:50;13.13;;;6.72;;
40367;SDS011;26075;43.320;21.920;2022-08-19T05:55:51;10.75;;;6.45;;
40367;SDS011;26075;43.320;21.920;2022-08-19T06:00:52;11.25;;;6.53;;
40367;SDS011;26075;43.320;21.920;2022-08-19T06:05:54;10.52;;;7.00;;
40367;SDS011;26075;43.320;21.920;2022-08-19T06:10:55;10.38;;;6.55;;
40367;SDS011;26075;43.320;21.920;2022-08-19T06:15:56;11.77;;;6.03;;
40367;SDS011;26075;43.320;21.920;2022-08-19T06:20:57;9.88;;;6.47;;
40367;SDS011;26075;43.320;21.920;2022-08-19T06:25:59;10.40;;;6.40;;
40367;SDS011;26075;43.320;21.920;2022-08-19T06:31:05;11.07;;;6.40;;
40367;SDS011;26075;43.320;21.920;2022-08-19T06:36:06;7.97;;;5.65;;
40367;SDS011;26075;43.320;21.920;2022-08-19T06:41:08;9.25;;;6.00;;
40367;SDS011;26075;43.320;21.920;2022-08-19T06:46:11;8.73;;;6.10;;
40367;SDS011;26075;43.320;21.920;2022-08-19T06:51:16;10.05;;;6.38;;
40367;SDS011;26075;43.320;21.920;2022-08-19T06:56:22;9.52;;;6.07;;
40367;SDS011;26075;43.320;21.920;2022-08-19T07:01:25;9.20;;;6.15;;
40367;SDS011;26075;43.320;21.920;2022-08-19T07:06:26;7.47;;;5.57;;
40367;SDS011;26075;43.320;21.920;2022-08-19T07:11:27;9.40;;;5.78;;
40367;SDS011;26075;43.320;21.920;2022-08-19T07:16:28;8.43;;;5.93;;
40367;SDS011;26075;43.320;21.920;2022-08-19T07:21:29;9.88;;;5.43;;
40367;SDS011;26075;43.320;21.920;2022-08-19T07:26:32;7.30;;;5.53;;
40367;SDS011;26075;43.320;21.920;2022-08-19T07:31:34;10.27;;;6.13;;
40367;SDS011;26075;43.320;21.920;2022-08-19T07:36:37;10.40;;;6.15;;
40367;SDS011;26075;43.320;21.920;2022-08-19T07:41:39;13.15;;;7.15;;
40367;SDS011;26075;43.320;21.920;2022-08-19T07:46:41;7.95;;;6.05;;
40367;SDS011;26075;43.320;21.920;2022-08-19T07:51:48;6.70;;;5.50;;
40367;SDS011;26075;43.320;21.920;2022-08-19T07:56:49;6.60;;;5.45;;
40367;SDS011;26075;43.320;21.920;2022-08-19T08:01:50;10.18;;;5.75;;
40367;SDS011;26075;43.320;21.920;2022-08-19T08:06:52;9.57;;;5.78;;
40367;SDS011;26075;43.320;21.920;2022-08-19T08:12:17;6.72;;;5.85;;
40367;SDS011;26075;43.320;21.920;2022-08-19T08:17:20;12.77;;;6.65;;
40367;SDS011;26075;43.320;21.920;2022-08-19T08:22:21;7.50;;;5.70;;
40367;SDS011;26075;43.320;21.920;2022-08-19T08:27:42;7.63;;;5.03;;
40367;SDS011;26075;43.320;21.920;2022-08-19T08:32:44;13.68;;;5.68;;
40367;SDS011;26075;43.320;21.920;2022-08-19T08:37:45;6.68;;;5.03;;
40367;SDS011;26075;43.320;21.920;2022-08-19T08:42:58;7.85;;;5.20;;
40367;SDS011;26075;43.320;21.920;2022-08-19T08:48:03;7.65;;;5.65;;
40367;SDS011;26075;43.320;21.920;2022-08-19T08:53:05;7.93;;;5.47;;
40367;SDS011;26075;43.320;21.920;2022-08-19T08:58:12;11.30;;;5.70;;
40367;SDS011;26075;43.320;21.920;2022-08-19T09:03:18;7.65;;;6.13;;
40367;SDS011;26075;43.320;21.920;2022-08-19T09:18:44;9.55;;;5.95;;
40367;SDS011;26075;43.320;21.920;2022-08-19T09:23:46;11.02;;;6.15;;
40367;SDS011;26075;43.320;21.920;2022-08-19T09:28:48;9.98;;;5.47;;
40367;SDS011;26075;43.320;21.920;2022-08-19T09:33:50;8.73;;;6.47;;
40367;SDS011;26075;43.320;21.920;2022-08-19T09:38:52;8.82;;;6.22;;
40367;SDS011;26075;43.320;21.920;2022-08-19T09:43:54;11.48;;;5.65;;
40367;SDS011;26075;43.320;21.920;2022-08-19T09:48:57;10.07;;;5.63;;
40367;SDS011;26075;43.320;21.920;2022-08-19T09:54:00;8.93;;;7.05;;
40367;SDS011;26075;43.320;21.920;2022-08-19T09:59:02;11.13;;;6.50;;
40367;SDS011;26075;43.320;21.920;2022-08-19T10:04:04;9.90;;;7.07;;
40367;SDS011;26075;43.320;21.920;2022-08-19T10:09:09;9.35;;;6.55;;
40367;SDS011;26075;43.320;21.920;2022-08-19T10:14:10;14.43;;;6.88;;
40367;SDS011;26075;43.320;21.920;2022-08-19T10:19:11;10.02;;;7.45;;
40367;SDS011;26075;43.320;21.920;2022-08-19T10:24:12;11.45;;;7.10;;
40367;SDS011;26075;43.320;21.920;2022-08-19T10:29:13;16.25;;;8.70;;
40367;SDS011;26075;43.320;21.920;2022-08-19T10:34:16;13.43;;;6.88;;
40367;SDS011;26075;43.320;21.920;2022-08-19T10:39:17;8.35;;;7.32;;
40367;SDS011;26075;43.320;21.920;2022-08-19T10:44:18;10.02;;;7.53;;
40367;SDS011;26075;43.320;21.920;2022-08-19T10:49:21;10.82;;;7.10;;
40367;SDS011;26075;43.320;21.920;2022-08-19T10:54:24;9.40;;;7.60;;
40367;SDS011;26075;43.320;21.920;2022-08-19T10:59:45;11.57;;;5.80;;
40367;SDS011;26075;43.320;21.920;2022-08-19T11:04:47;9.15;;;6.47;;
40367;SDS011;26075;43.320;21.920;2022-08-19T11:09:51;14.93;;;7.80;;
40367;SDS011;26075;43.320;21.920;2022-08-19T11:14:52;10.23;;;5.75;;
40367;SDS011;26075;43.320;21.920;2022-08-19T11:19:54;14.85;;;6.30;;
40367;SDS011;26075;43.320;21.920;2022-08-19T11:24:55;11.32;;;5.85;;
40367;SDS011;26075;43.320;21.920;2022-08-19T11:29:56;10.35;;;6.13;;
40367;SDS011;26075;43.320;21.920;2022-08-19T11:34:57;9.15;;;7.00;;
40367;SDS011;26075;43.320;21.920;2022-08-19T11:39:58;10.18;;;6.25;;
40367;SDS011;26075;43.320;21.920;2022-08-19T11:45:00;11.77;;;5.90;;
40367;SDS011;26075;43.320;21.920;2022-08-19T11:50:03;14.80;;;5.18;;
40367;SDS011;26075;43.320;21.920;2022-08-19T11:55:05;10.13;;;5.32;;
40367;SDS011;26075;43.320;21.920;2022-08-19T12:00:06;9.43;;;5.65;;
40367;SDS011;26075;43.320;21.920;2022-08-19T12:05:08;11.73;;;5.35;;
40367;SDS011;26075;43.320;21.920;2022-08-19T12:10:09;10.45;;;4.80;;
40367;SDS011;26075;43.320;21.920;2022-08-19T12:15:11;11.68;;;5.88;;
40367;SDS011;26075;43.320;21.920;2022-08-19T12:20:12;13.93;;;5.45;;
40367;SDS011;26075;43.320;21.920;2022-08-19T12:25:15;8.88;;;4.95;;
40367;SDS011;26075;43.320;21.920;2022-08-19T12:30:16;8.10;;;4.75;;
40367;SDS011;26075;43.320;21.920;2022-08-19T12:35:18;9.75;;;5.00;;
40367;SDS011;26075;43.320;21.920;2022-08-19T12:40:20;13.25;;;5.28;;
40367;SDS011;26075;43.320;21.920;2022-08-19T12:50:16;14.02;;;5.90;;
40367;SDS011;26075;43.320;21.920;2022-08-19T12:55:17;10.80;;;4.50;;
40367;SDS011;26075;43.320;21.920;2022-08-19T13:00:19;10.15;;;4.60;;
40367;SDS011;26075;43.320;21.920;2022-08-19T13:05:22;9.00;;;4.13;;
40367;SDS011;26075;43.320;21.920;2022-08-19T13:10:24;9.35;;;4.35;;
40367;SDS011;26075;43.320;21.920;2022-08-19T13:15:27;8.90;;;4.10;;
40367;SDS011;26075;43.320;21.920;2022-08-19T13:20:31;10.00;;;4.45;;
40367;SDS011;26075;43.320;21.920;2022-08-19T13:25:32;8.93;;;4.90;;
40367;SDS011;26075;43.320;21.920;2022-08-19T13:30:33;12.05;;;4.65;;
40367;SDS011;26075;43.320;21.920;2022-08-19T13:35:56;8.05;;;4.32;;
40367;SDS011;26075;43.320;21.920;2022-08-19T13:41:03;5.90;;;3.70;;
40367;SDS011;26075;43.320;21.920;2022-08-19T13:46:08;11.20;;;5.25;;
40367;SDS011;26075;43.320;21.920;2022-08-19T13:51:09;11.35;;;4.20;;
40367;SDS011;26075;43.320;21.920;2022-08-19T13:56:13;12.15;;;4.22;;
40367;SDS011;26075;43.320;21.920;2022-08-19T14:01:18;12.50;;;5.17;;
40367;SDS011;26075;43.320;21.920;2022-08-19T14:06:20;9.30;;;4.05;;
40367;SDS011;26075;43.320;21.920;2022-08-19T14:11:22;11.75;;;4.82;;
40367;SDS011;26075;43.320;21.920;2022-08-19T14:16:23;11.43;;;4.75;;
40367;SDS011;26075;43.320;21.920;2022-08-19T14:21:24;10.07;;;4.68;;
40367;SDS011;26075;43.320;21.920;2022-08-19T14:26:25;10.02;;;5.38;;
40367;SDS011;26075;43.320;21.920;2022-08-19T14:31:26;8.65;;;4.82;;
40367;SDS011;26075;43.320;21.920;2022-08-19T14:36:27;8.90;;;4.38;;
40367;SDS011;26075;43.320;21.920;2022-08-19T14:41:28;10.10;;;5.50;;
40367;SDS011;26075;43.320;21.920;2022-08-19T14:46:30;13.18;;;4.95;;
40367;SDS011;26075;43.320;21.920;2022-08-19T14:51:31;5.78;;;3.90;;
40367;SDS011;26075;43.320;21.920;2022-08-19T14:56:32;9.88;;;4.60;;
40367;SDS011;26075;43.320;21.920;2022-08-19T15:01:33;14.50;;;4.88;;
40367;SDS011;26075;43.320;21.920;2022-08-19T15:06:34;13.95;;;7.45;;
40367;SDS011;26075;43.320;21.920;2022-08-19T15:11:35;11.32;;;4.95;;
40367;SDS011;26075;43.320;21.920;2022-08-19T15:16:38;14.65;;;5.65;;
40367;SDS011;26075;43.320;21.920;2022-08-19T15:21:41;13.13;;;6.15;;
40367;SDS011;26075;43.320;21.920;2022-08-19T15:26:42;9.25;;;4.40;;
40367;SDS011;26075;43.320;21.920;2022-08-19T15:31:44;11.23;;;4.72;;
40367;SDS011;26075;43.320;21.920;2022-08-19T15:36:45;10.10;;;5.50;;
40367;SDS011;26075;43.320;21.920;2022-08-19T15:41:46;10.68;;;4.90;;
40367;SDS011;26075;43.320;21.920;2022-08-19T15:46:48;8.02;;;4.72;;
40367;SDS011;26075;43.320;21.920;2022-08-19T15:51:49;17.48;;;6.65;;
40367;SDS011;26075;43.320;21.920;2022-08-19T15:56:53;9.73;;;4.40;;
40367;SDS011;26075;43.320;21.920;2022-08-19T16:02:12;15.40;;;4.57;;
40367;SDS011;26075;43.320;21.920;2022-08-19T16:07:32;15.45;;;4.78;;
40367;SDS011;26075;43.320;21.920;2022-08-19T16:12:33;12.48;;;5.65;;
40367;SDS011;26075;43.320;21.920;2022-08-19T16:17:34;18.00;;;8.07;;
40367;SDS011;26075;43.320;21.920;2022-08-19T16:22:36;15.65;;;5.55;;
40367;SDS011;26075;43.320;21.920;2022-08-19T16:27:38;10.18;;;6.00;;
40367;SDS011;26075;43.320;21.920;2022-08-19T16:32:43;10.18;;;4.50;;
40367;SDS011;26075;43.320;21.920;2022-08-19T16:37:44;12.25;;;4.80;;
40367;SDS011;26075;43.320;21.920;2022-08-19T16:42:45;25.13;;;9.02;;
40367;SDS011;26075;43.320;21.920;2022-08-19T16:47:46;24.70;;;8.93;;
40367;SDS011;26075;43.320;21.920;2022-08-19T16:52:47;18.52;;;7.72;;
40367;SDS011;26075;43.320;21.920;2022-08-19T16:57:48;11.60;;;5.72;;
40367;SDS011;26075;43.320;21.920;2022-08-19T17:02:49;14.35;;;5.63;;
40367;SDS011;26075;43.320;21.920;2022-08-19T17:07:50;20.55;;;7.00;;
40367;SDS011;26075;43.320;21.920;2022-08-19T17:12:51;16.67;;;6.70;;
40367;SDS011;26075;43.320;21.920;2022-08-19T17:17:57;15.40;;;7.15;;
40367;SDS011;26075;43.320;21.920;2022-08-19T17:22:59;12.93;;;7.00;;
40367;SDS011;26075;43.320;21.920;2022-08-19T17:28:10;17.95;;;7.03;;
40367;SDS011;26075;43.320;21.920;2022-08-19T17:33:12;17.98;;;7.50;;
40367;SDS011;26075;43.320;21.920;2022-08-19T17:38:14;14.88;;;6.35;;
40367;SDS011;26075;43.320;21.920;2022-08-19T17:43:16;14.90;;;6.88;;
40367;SDS011;26075;43.320;21.920;2022-08-19T17:48:18;14.98;;;6.43;;
40367;SDS011;26075;43.320;21.920;2022-08-19T17:53:19;15.75;;;7.25;;
40367;SDS011;26075;43.320;21.920;2022-08-19T17:58:20;13.68;;;8.50;;
40367;SDS011;26075;43.320;21.920;2022-08-19T18:03:21;20.25;;;7.38;;
40367;SDS011;26075;43.320;21.920;2022-08-19T18:08:22;15.27;;;6.85;;
40367;SDS011;26075;43.320;21.920;2022-08-19T18:13:24;18.90;;;8.45;;
40367;SDS011;26075;43.320;21.920;2022-08-19T18:18:25;19.63;;;9.45;;
40367;SDS011;26075;43.320;21.920;2022-08-19T18:23:29;16.77;;;8.32;;
40367;SDS011;26075;43.320;21.920;2022-08-19T18:28:30;17.63;;;11.18;;
40367;SDS011;26075;43.320;21.920;2022-08-19T18:33:32;18.80;;;8.40;;
40367;SDS011;26075;43.320;21.920;2022-08-19T18:38:33;14.27;;;7.38;;
40367;SDS011;26075;43.320;21.920;2022-08-19T18:43:53;13.40;;;6.13;;
40367;SDS011;26075;43.320;21.920;2022-08-19T18:49:16;13.35;;;6.53;;
40367;SDS011;26075;43.320;21.920;2022-08-19T18:54:18;16.23;;;6.20;;
40367;SDS011;26075;43.320;21.920;2022-08-19T18:59:26;12.50;;;7.25;;
40367;SDS011;26075;43.320;21.920;2022-08-19T19:04:29;17.38;;;6.93;;
40367;SDS011;26075;43.320;21.920;2022-08-19T19:09:32;17.75;;;6.55;;
40367;SDS011;26075;43.320;21.920;2022-08-19T19:14:34;19.48;;;6.70;;
40367;SDS011;26075;43.320;21.920;2022-08-19T19:19:35;16.75;;;6.30;;
40367;SDS011;26075;43.320;21.920;2022-08-19T19:24:41;20.17;;;6.35;;
40367;SDS011;26075;43.320;21.920;2022-08-19T19:29:45;24.93;;;8.90;;
40367;SDS011;26075;43.320;21.920;2022-08-19T19:34:46;17.95;;;6.90;;
40367;SDS011;26075;43.320;21.920;2022-08-19T19:39:47;17.88;;;6.88;;
40367;SDS011;26075;43.320;21.920;2022-08-19T19:44:49;21.90;;;6.80;;
40367;SDS011;26075;43.320;21.920;2022-08-19T19:49:51;22.23;;;7.60;;
40367;SDS011;26075;43.320;21.920;2022-08-19T19:54:54;21.98;;;7.43;;
40367;SDS011;26075;43.320;21.920;2022-08-19T19:59:55;17.08;;;7.18;;
40367;SDS011;26075;43.320;21.920;2022-08-19T20:04:57;22.88;;;7.45;;
40367;SDS011;26075;43.320;21.920;2022-08-19T20:09:58;26.55;;;7.88;;
40367;SDS011;26075;43.320;21.920;2022-08-19T20:14:59;22.13;;;7.35;;
40367;SDS011;26075;43.320;21.920;2022-08-19T20:20:00;23.92;;;8.90;;
40367;SDS011;26075;43.320;21.920;2022-08-19T20:25:01;23.85;;;8.15;;
40367;SDS011;26075;43.320;21.920;2022-08-19T20:30:06;20.15;;;8.82;;
40367;SDS011;26075;43.320;21.920;2022-08-19T20:35:10;20.17;;;8.05;;
40367;SDS011;26075;43.320;21.920;2022-08-19T20:40:12;29.67;;;9.77;;
40367;SDS011;26075;43.320;21.920;2022-08-19T20:45:17;27.40;;;8.55;;
40367;SDS011;26075;43.320;21.920;2022-08-19T20:50:20;24.95;;;8.27;;
40367;SDS011;26075;43.320;21.920;2022-08-19T20:55:22;24.15;;;8.68;;
40367;SDS011;26075;43.320;21.920;2022-08-19T21:00:23;28.50;;;9.77;;
40367;SDS011;26075;43.320;21.920;2022-08-19T21:05:24;26.73;;;7.72;;
40367;SDS011;26075;43.320;21.920;2022-08-19T21:10:25;20.77;;;8.40;;
40367;SDS011;26075;43.320;21.920;2022-08-19T21:15:26;29.80;;;9.40;;
40367;SDS011;26075;43.320;21.920;2022-08-19T21:20:27;22.92;;;8.35;;
40367;SDS011;26075;43.320;21.920;2022-08-19T21:25:28;22.38;;;8.38;;
40367;SDS011;26075;43.320;21.920;2022-08-19T21:30:29;23.38;;;8.77;;
40367;SDS011;26075;43.320;21.920;2022-08-19T21:35:31;26.98;;;8.38;;
40367;SDS011;26075;43.320;21.920;2022-08-19T21:40:32;22.15;;;8.88;;
40367;SDS011;26075;43.320;21.920;2022-08-19T21:45:34;21.02;;;8.65;;
40367;SDS011;26075;43.320;21.920;2022-08-19T21:50:35;22.63;;;8.90;;
40367;SDS011;26075;43.320;21.920;2022-08-19T21:55:36;15.48;;;8.52;;
40367;SDS011;26075;43.320;21.920;2022-08-19T22:00:37;23.13;;;8.75;;
40367;SDS011;26075;43.320;21.920;2022-08-19T22:05:38;20.27;;;8.70;;
40367;SDS011;26075;43.320;21.920;2022-08-19T22:10:39;18.83;;;8.15;;
40367;SDS011;26075;43.320;21.920;2022-08-19T22:15:40;18.08;;;8.00;;
40367;SDS011;26075;43.320;21.920;2022-08-19T22:20:42;21.75;;;9.05;;
40367;SDS011;26075;43.320;21.920;2022-08-19T22:25:44;19.88;;;8.63;;
40367;SDS011;26075;43.320;21.920;2022-08-19T22:30:45;16.83;;;7.90;;
40367;SDS011;26075;43.320;21.920;2022-08-19T22:35:46;19.48;;;8.52;;
40367;SDS011;26075;43.320;21.920;2022-08-19T22:40:48;24.05;;;8.65;;
40367;SDS011;26075;43.320;21.920;2022-08-19T22:45:50;20.45;;;9.73;;
40367;SDS011;26075;43.320;21.920;2022-08-19T22:50:52;22.00;;;8.80;;
40367;SDS011;26075;43.320;21.920;2022-08-19T22:56:13;18.70;;;9.00;;
40367;SDS011;26075;43.320;21.920;2022-08-19T23:01:14;22.55;;;9.07;;
40367;SDS011;26075;43.320;21.920;2022-08-19T23:06:15;18.90;;;9.02;;
40367;SDS011;26075;43.320;21.920;2022-08-19T23:11:16;13.05;;;8.68;;
40367;SDS011;26075;43.320;21.920;2022-08-19T23:16:17;17.40;;;8.82;;
40367;SDS011;26075;43.320;21.920;2022-08-19T23:21:18;15.77;;;9.02;;
40367;SDS011;26075;43.320;21.920;2022-08-19T23:26:19;13.73;;;9.27;;
40367;SDS011;26075;43.320;21.920;2022-08-19T23:31:21;19.08;;;9.10;;
40367;SDS011;26075;43.320;21.920;2022-08-19T23:36:22;16.83;;;8.57;;
40367;SDS011;26075;43.320;21.920;2022-08-19T23:41:24;24.67;;;9.02;;
40367;SDS011;26075;43.320;21.920;2022-08-19T23:46:26;18.02;;;9.15;;
40367;SDS011;26075;43.320;21.920;2022-08-19T23:51:27;13.60;;;8.68;;
40367;SDS011;26075;43.320;21.920;2022-08-19T23:56:28;17.70;;;8.02;;
